sensor_id;sensor_type;location;lat;lon;timestamp;pressure;altitude;pressure_sealevel;temperature;humidity
57250;BME280;43102;52.014;-0.680;2022-09-09T00:00:00;99370;;;16.40;80.79
57250;BME280;43102;52.014;-0.680;2022-09-09T00:02:03;99367;;;16.36;80.80
57250;BME280;43102;52.014;-0.680;2022-09-09T00:04:03;99367;;;16.36;80.80
57250;BME280;43102;52.014;-0.680;2022-09-09T00:05:04;99367;;;16.36;80.80
57250;BME280;43102;52.014;-0.680;2022-09-09T00:06:08;99365;;;16.35;80.76
57250;BME280;43102;52.014;-0.680;2022-09-09T00:07:03;99365;;;16.35;80.76
57250;BME280;43102;52.014;-0.680;2022-09-09T00:08:00;99365;;;16.35;80.76
57250;BME280;43102;52.014;-0.680;2022-09-09T00:09:16;99365;;;16.35;80.76
57250;BME280;43102;52.014;-0.680;2022-09-09T00:10:13;99365;;;16.35;80.76
57250;BME280;43102;52.014;-0.680;2022-09-09T00:11:00;99366;;;16.34;80.78
57250;BME280;43102;52.014;-0.680;2022-09-09T00:12:02;99366;;;16.34;80.78
57250;BME280;43102;52.014;-0.680;2022-09-09T00:13:03;99366;;;16.34;80.78
57250;BME280;43102;52.014;-0.680;2022-09-09T00:14:00;99366;;;16.34;80.78
57250;BME280;43102;52.014;-0.680;2022-09-09T00:15:02;99366;;;16.34;80.78
57250;BME280;43102;52.014;-0.680;2022-09-09T00:16:04;99369;;;16.32;80.94
57250;BME280;43102;52.014;-0.680;2022-09-09T00:17:02;99369;;;16.32;80.94
57250;BME280;43102;52.014;-0.680;2022-09-09T00:19:02;99369;;;16.32;80.94
57250;BME280;43102;52.014;-0.680;2022-09-09T00:20:01;99369;;;16.32;80.94
57250;BME280;43102;52.014;-0.680;2022-09-09T00:22:17;99370;;;16.22;81.05
57250;BME280;43102;52.014;-0.680;2022-09-09T00:23:05;99370;;;16.22;81.05
57250;BME280;43102;52.014;-0.680;2022-09-09T00:24:00;99370;;;16.22;81.05
57250;BME280;43102;52.014;-0.680;2022-09-09T00:25:02;99370;;;16.22;81.05
57250;BME280;43102;52.014;-0.680;2022-09-09T00:27:01;99372;;;16.08;81.29
57250;BME280;43102;52.014;-0.680;2022-09-09T00:28:00;99372;;;16.08;81.29
57250;BME280;43102;52.014;-0.680;2022-09-09T00:30:12;99372;;;16.08;81.29
57250;BME280;43102;52.014;-0.680;2022-09-09T00:31:04;99371;;;16.02;81.44
57250;BME280;43102;52.014;-0.680;2022-09-09T00:32:00;99371;;;16.02;81.44
57250;BME280;43102;52.014;-0.680;2022-09-09T00:33:00;99371;;;16.02;81.44
57250;BME280;43102;52.014;-0.680;2022-09-09T00:34:03;99371;;;16.02;81.44
57250;BME280;43102;52.014;-0.680;2022-09-09T00:35:02;99371;;;16.02;81.44
57250;BME280;43102;52.014;-0.680;2022-09-09T00:36:00;99368;;;16.03;81.44
57250;BME280;43102;52.014;-0.680;2022-09-09T00:37:00;99368;;;16.03;81.44
57250;BME280;43102;52.014;-0.680;2022-09-09T00:38:02;99368;;;16.03;81.44
57250;BME280;43102;52.014;-0.680;2022-09-09T00:39:00;99368;;;16.03;81.44
57250;BME280;43102;52.014;-0.680;2022-09-09T00:40:01;99368;;;16.03;81.44
57250;BME280;43102;52.014;-0.680;2022-09-09T00:41:06;99363;;;16.05;81.29
57250;BME280;43102;52.014;-0.680;2022-09-09T00:43:08;99363;;;16.05;81.29
57250;BME280;43102;52.014;-0.680;2022-09-09T00:45:02;99363;;;16.05;81.29
57250;BME280;43102;52.014;-0.680;2022-09-09T00:47:04;99364;;;16.06;81.46
57250;BME280;43102;52.014;-0.680;2022-09-09T00:48:01;99364;;;16.06;81.46
57250;BME280;43102;52.014;-0.680;2022-09-09T00:50:05;99364;;;16.06;81.46
57250;BME280;43102;52.014;-0.680;2022-09-09T00:51:01;99367;;;16.08;81.43
57250;BME280;43102;52.014;-0.680;2022-09-09T00:52:08;99367;;;16.08;81.43
57250;BME280;43102;52.014;-0.680;2022-09-09T00:56:05;99366;;;16.10;81.45
57250;BME280;43102;52.014;-0.680;2022-09-09T00:58:00;99366;;;16.10;81.45
57250;BME280;43102;52.014;-0.680;2022-09-09T00:59:07;99366;;;16.10;81.45
57250;BME280;43102;52.014;-0.680;2022-09-09T01:01:04;99365;;;16.12;81.43
57250;BME280;43102;52.014;-0.680;2022-09-09T01:02:00;99365;;;16.12;81.43
57250;BME280;43102;52.014;-0.680;2022-09-09T01:04:00;99365;;;16.12;81.43
57250;BME280;43102;52.014;-0.680;2022-09-09T01:05:03;99365;;;16.12;81.43
57250;BME280;43102;52.014;-0.680;2022-09-09T01:06:00;99366;;;16.12;81.44
57250;BME280;43102;52.014;-0.680;2022-09-09T01:07:03;99366;;;16.12;81.44
57250;BME280;43102;52.014;-0.680;2022-09-09T01:08:00;99366;;;16.12;81.44
57250;BME280;43102;52.014;-0.680;2022-09-09T01:10:00;99366;;;16.12;81.44
57250;BME280;43102;52.014;-0.680;2022-09-09T01:11:00;99371;;;16.07;81.61
57250;BME280;43102;52.014;-0.680;2022-09-09T01:12:16;99371;;;16.07;81.61
57250;BME280;43102;52.014;-0.680;2022-09-09T01:13:00;99371;;;16.07;81.61
57250;BME280;43102;52.014;-0.680;2022-09-09T01:14:32;99371;;;16.07;81.61
57250;BME280;43102;52.014;-0.680;2022-09-09T01:15:30;99371;;;16.07;81.61
57250;BME280;43102;52.014;-0.680;2022-09-09T01:16:00;99364;;;16.09;81.92
57250;BME280;43102;52.014;-0.680;2022-09-09T01:17:03;99364;;;16.09;81.92
57250;BME280;43102;52.014;-0.680;2022-09-09T01:18:02;99364;;;16.09;81.92
57250;BME280;43102;52.014;-0.680;2022-09-09T01:19:00;99364;;;16.09;81.92
57250;BME280;43102;52.014;-0.680;2022-09-09T01:22:11;99363;;;16.12;81.79
57250;BME280;43102;52.014;-0.680;2022-09-09T01:24:04;99363;;;16.12;81.79
57250;BME280;43102;52.014;-0.680;2022-09-09T01:27:01;99365;;;16.15;81.87
57250;BME280;43102;52.014;-0.680;2022-09-09T01:28:01;99365;;;16.15;81.87
57250;BME280;43102;52.014;-0.680;2022-09-09T01:29:00;99365;;;16.15;81.87
57250;BME280;43102;52.014;-0.680;2022-09-09T01:30:00;99365;;;16.15;81.87
57250;BME280;43102;52.014;-0.680;2022-09-09T01:31:00;99368;;;16.18;81.98
57250;BME280;43102;52.014;-0.680;2022-09-09T01:32:01;99368;;;16.18;81.98
57250;BME280;43102;52.014;-0.680;2022-09-09T01:33:00;99368;;;16.18;81.98
57250;BME280;43102;52.014;-0.680;2022-09-09T01:34:00;99368;;;16.18;81.98
57250;BME280;43102;52.014;-0.680;2022-09-09T01:35:00;99368;;;16.18;81.98
57250;BME280;43102;52.014;-0.680;2022-09-09T01:36:18;99372;;;16.20;82.19
57250;BME280;43102;52.014;-0.680;2022-09-09T01:37:08;99372;;;16.20;82.19
57250;BME280;43102;52.014;-0.680;2022-09-09T01:38:00;99372;;;16.20;82.19
57250;BME280;43102;52.014;-0.680;2022-09-09T01:39:00;99372;;;16.20;82.19
57250;BME280;43102;52.014;-0.680;2022-09-09T01:40:00;99372;;;16.20;82.19
57250;BME280;43102;52.014;-0.680;2022-09-09T01:41:00;99367;;;16.22;82.25
57250;BME280;43102;52.014;-0.680;2022-09-09T01:42:00;99367;;;16.22;82.25
57250;BME280;43102;52.014;-0.680;2022-09-09T01:43:00;99367;;;16.22;82.25
57250;BME280;43102;52.014;-0.680;2022-09-09T01:44:00;99367;;;16.22;82.25
57250;BME280;43102;52.014;-0.680;2022-09-09T01:45:00;99367;;;16.22;82.25
57250;BME280;43102;52.014;-0.680;2022-09-09T01:46:00;99369;;;16.25;82.59
57250;BME280;43102;52.014;-0.680;2022-09-09T01:47:00;99369;;;16.25;82.59
57250;BME280;43102;52.014;-0.680;2022-09-09T01:48:00;99369;;;16.25;82.59
57250;BME280;43102;52.014;-0.680;2022-09-09T01:49:00;99369;;;16.25;82.59
57250;BME280;43102;52.014;-0.680;2022-09-09T01:50:00;99369;;;16.25;82.59
57250;BME280;43102;52.014;-0.680;2022-09-09T01:51:00;99371;;;16.28;82.62
57250;BME280;43102;52.014;-0.680;2022-09-09T01:52:00;99371;;;16.28;82.62
57250;BME280;43102;52.014;-0.680;2022-09-09T01:53:00;99371;;;16.28;82.62
57250;BME280;43102;52.014;-0.680;2022-09-09T01:54:00;99371;;;16.28;82.62
57250;BME280;43102;52.014;-0.680;2022-09-09T01:55:00;99371;;;16.28;82.62
57250;BME280;43102;52.014;-0.680;2022-09-09T01:57:16;99373;;;16.28;82.67
57250;BME280;43102;52.014;-0.680;2022-09-09T01:58:05;99373;;;16.28;82.67
57250;BME280;43102;52.014;-0.680;2022-09-09T02:01:17;99370;;;16.30;82.76
57250;BME280;43102;52.014;-0.680;2022-09-09T02:02:17;99370;;;16.30;82.76
57250;BME280;43102;52.014;-0.680;2022-09-09T02:03:05;99370;;;16.30;82.76
57250;BME280;43102;52.014;-0.680;2022-09-09T02:04:00;99370;;;16.30;82.76
57250;BME280;43102;52.014;-0.680;2022-09-09T02:05:04;99370;;;16.30;82.76
57250;BME280;43102;52.014;-0.680;2022-09-09T02:06:05;99376;;;16.31;82.90
57250;BME280;43102;52.014;-0.680;2022-09-09T02:07:00;99376;;;16.31;82.90
57250;BME280;43102;52.014;-0.680;2022-09-09T02:08:05;99376;;;16.31;82.90
57250;BME280;43102;52.014;-0.680;2022-09-09T02:09:00;99376;;;16.31;82.90
57250;BME280;43102;52.014;-0.680;2022-09-09T02:10:02;99376;;;16.31;82.90
57250;BME280;43102;52.014;-0.680;2022-09-09T02:11:05;99376;;;16.28;83.13
57250;BME280;43102;52.014;-0.680;2022-09-09T02:12:02;99376;;;16.28;83.13
57250;BME280;43102;52.014;-0.680;2022-09-09T02:13:02;99376;;;16.28;83.13
57250;BME280;43102;52.014;-0.680;2022-09-09T02:14:00;99376;;;16.28;83.13
57250;BME280;43102;52.014;-0.680;2022-09-09T02:15:02;99376;;;16.28;83.13
57250;BME280;43102;52.014;-0.680;2022-09-09T02:17:02;99376;;;16.31;83.44
57250;BME280;43102;52.014;-0.680;2022-09-09T02:18:00;99376;;;16.31;83.44
57250;BME280;43102;52.014;-0.680;2022-09-09T02:20:03;99376;;;16.31;83.44
57250;BME280;43102;52.014;-0.680;2022-09-09T02:21:00;99378;;;16.32;83.44
57250;BME280;43102;52.014;-0.680;2022-09-09T02:22:00;99378;;;16.32;83.44
57250;BME280;43102;52.014;-0.680;2022-09-09T02:23:01;99378;;;16.32;83.44
57250;BME280;43102;52.014;-0.680;2022-09-09T02:24:00;99378;;;16.32;83.44
57250;BME280;43102;52.014;-0.680;2022-09-09T02:25:00;99378;;;16.32;83.44
57250;BME280;43102;52.014;-0.680;2022-09-09T02:26:00;99372;;;16.31;83.54
57250;BME280;43102;52.014;-0.680;2022-09-09T02:27:00;99372;;;16.31;83.54
57250;BME280;43102;52.014;-0.680;2022-09-09T02:28:00;99372;;;16.31;83.54
57250;BME280;43102;52.014;-0.680;2022-09-09T02:29:01;99372;;;16.31;83.54
57250;BME280;43102;52.014;-0.680;2022-09-09T02:30:00;99372;;;16.31;83.54
57250;BME280;43102;52.014;-0.680;2022-09-09T02:31:00;99375;;;16.30;83.58
57250;BME280;43102;52.014;-0.680;2022-09-09T02:32:01;99375;;;16.30;83.58
57250;BME280;43102;52.014;-0.680;2022-09-09T02:33:00;99375;;;16.30;83.58
57250;BME280;43102;52.014;-0.680;2022-09-09T02:34:00;99375;;;16.30;83.58
57250;BME280;43102;52.014;-0.680;2022-09-09T02:35:02;99375;;;16.30;83.58
57250;BME280;43102;52.014;-0.680;2022-09-09T02:36:00;99374;;;16.32;83.69
57250;BME280;43102;52.014;-0.680;2022-09-09T02:37:00;99374;;;16.32;83.69
57250;BME280;43102;52.014;-0.680;2022-09-09T02:38:01;99374;;;16.32;83.69
57250;BME280;43102;52.014;-0.680;2022-09-09T02:39:00;99374;;;16.32;83.69
57250;BME280;43102;52.014;-0.680;2022-09-09T02:40:00;99374;;;16.32;83.69
57250;BME280;43102;52.014;-0.680;2022-09-09T02:41:00;99376;;;16.32;83.63
57250;BME280;43102;52.014;-0.680;2022-09-09T02:42:00;99376;;;16.32;83.63
57250;BME280;43102;52.014;-0.680;2022-09-09T02:43:00;99376;;;16.32;83.63
57250;BME280;43102;52.014;-0.680;2022-09-09T02:44:00;99376;;;16.32;83.63
57250;BME280;43102;52.014;-0.680;2022-09-09T02:45:00;99376;;;16.32;83.63
57250;BME280;43102;52.014;-0.680;2022-09-09T02:46:21;99379;;;16.29;84.02
57250;BME280;43102;52.014;-0.680;2022-09-09T02:49:03;99379;;;16.29;84.02
57250;BME280;43102;52.014;-0.680;2022-09-09T02:50:16;99379;;;16.29;84.02
57250;BME280;43102;52.014;-0.680;2022-09-09T02:52:02;99381;;;16.28;84.25
57250;BME280;43102;52.014;-0.680;2022-09-09T02:53:03;99381;;;16.28;84.25
57250;BME280;43102;52.014;-0.680;2022-09-09T02:55:04;99381;;;16.28;84.25
57250;BME280;43102;52.014;-0.680;2022-09-09T02:56:04;99385;;;16.26;84.17
57250;BME280;43102;52.014;-0.680;2022-09-09T02:58:00;99385;;;16.26;84.17
57250;BME280;43102;52.014;-0.680;2022-09-09T02:59:02;99385;;;16.26;84.17
57250;BME280;43102;52.014;-0.680;2022-09-09T03:00:00;99385;;;16.26;84.17
57250;BME280;43102;52.014;-0.680;2022-09-09T03:01:00;99382;;;16.25;84.09
57250;BME280;43102;52.014;-0.680;2022-09-09T03:02:00;99382;;;16.25;84.09
57250;BME280;43102;52.014;-0.680;2022-09-09T03:03:00;99382;;;16.25;84.09
57250;BME280;43102;52.014;-0.680;2022-09-09T03:04:00;99382;;;16.25;84.09
57250;BME280;43102;52.014;-0.680;2022-09-09T03:05:00;99382;;;16.25;84.09
57250;BME280;43102;52.014;-0.680;2022-09-09T03:06:00;99389;;;16.22;84.11
57250;BME280;43102;52.014;-0.680;2022-09-09T03:07:00;99389;;;16.22;84.11
57250;BME280;43102;52.014;-0.680;2022-09-09T03:08:00;99389;;;16.22;84.11
57250;BME280;43102;52.014;-0.680;2022-09-09T03:09:00;99389;;;16.22;84.11
57250;BME280;43102;52.014;-0.680;2022-09-09T03:10:00;99389;;;16.22;84.11
57250;BME280;43102;52.014;-0.680;2022-09-09T03:11:00;99389;;;16.22;84.20
57250;BME280;43102;52.014;-0.680;2022-09-09T03:12:00;99389;;;16.22;84.20
57250;BME280;43102;52.014;-0.680;2022-09-09T03:13:00;99389;;;16.22;84.20
57250;BME280;43102;52.014;-0.680;2022-09-09T03:14:00;99389;;;16.22;84.20
57250;BME280;43102;52.014;-0.680;2022-09-09T03:15:00;99389;;;16.22;84.20
57250;BME280;43102;52.014;-0.680;2022-09-09T03:16:00;99391;;;16.21;84.53
57250;BME280;43102;52.014;-0.680;2022-09-09T03:17:00;99391;;;16.21;84.53
57250;BME280;43102;52.014;-0.680;2022-09-09T03:18:00;99391;;;16.21;84.53
57250;BME280;43102;52.014;-0.680;2022-09-09T03:19:00;99391;;;16.21;84.53
57250;BME280;43102;52.014;-0.680;2022-09-09T03:20:00;99391;;;16.21;84.53
57250;BME280;43102;52.014;-0.680;2022-09-09T03:21:00;99388;;;16.18;84.61
57250;BME280;43102;52.014;-0.680;2022-09-09T03:22:00;99388;;;16.18;84.61
57250;BME280;43102;52.014;-0.680;2022-09-09T03:23:00;99388;;;16.18;84.61
57250;BME280;43102;52.014;-0.680;2022-09-09T03:24:00;99388;;;16.18;84.61
57250;BME280;43102;52.014;-0.680;2022-09-09T03:25:00;99388;;;16.18;84.61
57250;BME280;43102;52.014;-0.680;2022-09-09T03:26:00;99388;;;16.14;84.73
57250;BME280;43102;52.014;-0.680;2022-09-09T03:27:00;99388;;;16.14;84.73
57250;BME280;43102;52.014;-0.680;2022-09-09T03:28:00;99388;;;16.14;84.73
57250;BME280;43102;52.014;-0.680;2022-09-09T03:29:00;99388;;;16.14;84.73
57250;BME280;43102;52.014;-0.680;2022-09-09T03:30:00;99388;;;16.14;84.73
57250;BME280;43102;52.014;-0.680;2022-09-09T03:31:00;99392;;;16.16;84.66
57250;BME280;43102;52.014;-0.680;2022-09-09T03:32:00;99392;;;16.16;84.66
57250;BME280;43102;52.014;-0.680;2022-09-09T03:33:00;99392;;;16.16;84.66
57250;BME280;43102;52.014;-0.680;2022-09-09T03:34:00;99392;;;16.16;84.66
57250;BME280;43102;52.014;-0.680;2022-09-09T03:35:00;99392;;;16.16;84.66
57250;BME280;43102;52.014;-0.680;2022-09-09T03:36:00;99398;;;16.14;84.53
57250;BME280;43102;52.014;-0.680;2022-09-09T03:37:00;99398;;;16.14;84.53
57250;BME280;43102;52.014;-0.680;2022-09-09T03:38:00;99398;;;16.14;84.53
57250;BME280;43102;52.014;-0.680;2022-09-09T03:39:00;99398;;;16.14;84.53
57250;BME280;43102;52.014;-0.680;2022-09-09T03:40:00;99398;;;16.14;84.53
57250;BME280;43102;52.014;-0.680;2022-09-09T03:41:00;99401;;;16.07;84.55
57250;BME280;43102;52.014;-0.680;2022-09-09T03:42:00;99401;;;16.07;84.55
57250;BME280;43102;52.014;-0.680;2022-09-09T03:43:00;99401;;;16.07;84.55
57250;BME280;43102;52.014;-0.680;2022-09-09T03:44:00;99401;;;16.07;84.55
57250;BME280;43102;52.014;-0.680;2022-09-09T03:45:00;99401;;;16.07;84.55
57250;BME280;43102;52.014;-0.680;2022-09-09T03:46:00;99406;;;15.98;84.65
57250;BME280;43102;52.014;-0.680;2022-09-09T03:47:00;99406;;;15.98;84.65
57250;BME280;43102;52.014;-0.680;2022-09-09T03:48:00;99406;;;15.98;84.65
57250;BME280;43102;52.014;-0.680;2022-09-09T03:49:00;99406;;;15.98;84.65
57250;BME280;43102;52.014;-0.680;2022-09-09T03:50:00;99406;;;15.98;84.65
57250;BME280;43102;52.014;-0.680;2022-09-09T03:51:00;99410;;;15.93;84.89
57250;BME280;43102;52.014;-0.680;2022-09-09T03:52:00;99410;;;15.93;84.89
57250;BME280;43102;52.014;-0.680;2022-09-09T03:53:00;99410;;;15.93;84.89
57250;BME280;43102;52.014;-0.680;2022-09-09T03:54:00;99410;;;15.93;84.89
57250;BME280;43102;52.014;-0.680;2022-09-09T03:55:00;99410;;;15.93;84.89
57250;BME280;43102;52.014;-0.680;2022-09-09T03:56:00;99416;;;15.92;84.76
57250;BME280;43102;52.014;-0.680;2022-09-09T03:57:00;99416;;;15.92;84.76
57250;BME280;43102;52.014;-0.680;2022-09-09T03:58:00;99416;;;15.92;84.76
57250;BME280;43102;52.014;-0.680;2022-09-09T03:59:00;99416;;;15.92;84.76
57250;BME280;43102;52.014;-0.680;2022-09-09T04:00:01;99416;;;15.92;84.76
57250;BME280;43102;52.014;-0.680;2022-09-09T04:01:01;99427;;;15.87;84.83
57250;BME280;43102;52.014;-0.680;2022-09-09T04:02:00;99427;;;15.87;84.83
57250;BME280;43102;52.014;-0.680;2022-09-09T04:03:00;99427;;;15.87;84.83
57250;BME280;43102;52.014;-0.680;2022-09-09T04:04:00;99427;;;15.87;84.83
57250;BME280;43102;52.014;-0.680;2022-09-09T04:05:00;99427;;;15.87;84.83
57250;BME280;43102;52.014;-0.680;2022-09-09T04:06:00;99434;;;15.82;84.73
57250;BME280;43102;52.014;-0.680;2022-09-09T04:07:00;99434;;;15.82;84.73
57250;BME280;43102;52.014;-0.680;2022-09-09T04:08:00;99434;;;15.82;84.73
57250;BME280;43102;52.014;-0.680;2022-09-09T04:09:00;99434;;;15.82;84.73
57250;BME280;43102;52.014;-0.680;2022-09-09T04:10:00;99434;;;15.82;84.73
57250;BME280;43102;52.014;-0.680;2022-09-09T04:11:00;99443;;;15.83;84.65
57250;BME280;43102;52.014;-0.680;2022-09-09T04:12:00;99443;;;15.83;84.65
57250;BME280;43102;52.014;-0.680;2022-09-09T04:13:00;99443;;;15.83;84.65
57250;BME280;43102;52.014;-0.680;2022-09-09T04:14:00;99443;;;15.83;84.65
57250;BME280;43102;52.014;-0.680;2022-09-09T04:15:00;99443;;;15.83;84.65
57250;BME280;43102;52.014;-0.680;2022-09-09T04:16:00;99452;;;15.83;84.93
57250;BME280;43102;52.014;-0.680;2022-09-09T04:17:00;99452;;;15.83;84.93
57250;BME280;43102;52.014;-0.680;2022-09-09T04:18:00;99452;;;15.83;84.93
57250;BME280;43102;52.014;-0.680;2022-09-09T04:19:00;99452;;;15.83;84.93
57250;BME280;43102;52.014;-0.680;2022-09-09T04:20:00;99452;;;15.83;84.93
57250;BME280;43102;52.014;-0.680;2022-09-09T04:21:00;99450;;;15.82;84.83
57250;BME280;43102;52.014;-0.680;2022-09-09T04:22:00;99450;;;15.82;84.83
57250;BME280;43102;52.014;-0.680;2022-09-09T04:23:00;99450;;;15.82;84.83
57250;BME280;43102;52.014;-0.680;2022-09-09T04:24:00;99450;;;15.82;84.83
57250;BME280;43102;52.014;-0.680;2022-09-09T04:25:00;99450;;;15.82;84.83
57250;BME280;43102;52.014;-0.680;2022-09-09T04:26:01;99451;;;15.81;84.98
57250;BME280;43102;52.014;-0.680;2022-09-09T04:27:00;99451;;;15.81;84.98
57250;BME280;43102;52.014;-0.680;2022-09-09T04:28:00;99451;;;15.81;84.98
57250;BME280;43102;52.014;-0.680;2022-09-09T04:29:00;99451;;;15.81;84.98
57250;BME280;43102;52.014;-0.680;2022-09-09T04:30:00;99451;;;15.81;84.98
57250;BME280;43102;52.014;-0.680;2022-09-09T04:31:04;99453;;;15.84;84.97
57250;BME280;43102;52.014;-0.680;2022-09-09T04:32:00;99453;;;15.84;84.97
57250;BME280;43102;52.014;-0.680;2022-09-09T04:33:00;99453;;;15.84;84.97
57250;BME280;43102;52.014;-0.680;2022-09-09T04:34:00;99453;;;15.84;84.97
57250;BME280;43102;52.014;-0.680;2022-09-09T04:35:00;99453;;;15.84;84.97
57250;BME280;43102;52.014;-0.680;2022-09-09T04:36:00;99453;;;15.84;84.85
57250;BME280;43102;52.014;-0.680;2022-09-09T04:37:00;99453;;;15.84;84.85
57250;BME280;43102;52.014;-0.680;2022-09-09T04:38:00;99453;;;15.84;84.85
57250;BME280;43102;52.014;-0.680;2022-09-09T04:39:00;99453;;;15.84;84.85
57250;BME280;43102;52.014;-0.680;2022-09-09T04:40:00;99453;;;15.84;84.85
57250;BME280;43102;52.014;-0.680;2022-09-09T04:41:00;99451;;;15.82;84.73
57250;BME280;43102;52.014;-0.680;2022-09-09T04:42:00;99451;;;15.82;84.73
57250;BME280;43102;52.014;-0.680;2022-09-09T04:43:00;99451;;;15.82;84.73
57250;BME280;43102;52.014;-0.680;2022-09-09T04:44:00;99451;;;15.82;84.73
57250;BME280;43102;52.014;-0.680;2022-09-09T04:45:00;99451;;;15.82;84.73
57250;BME280;43102;52.014;-0.680;2022-09-09T04:46:00;99456;;;15.83;85.15
57250;BME280;43102;52.014;-0.680;2022-09-09T04:47:00;99456;;;15.83;85.15
57250;BME280;43102;52.014;-0.680;2022-09-09T04:48:00;99456;;;15.83;85.15
57250;BME280;43102;52.014;-0.680;2022-09-09T04:49:00;99456;;;15.83;85.15
57250;BME280;43102;52.014;-0.680;2022-09-09T04:50:00;99456;;;15.83;85.15
57250;BME280;43102;52.014;-0.680;2022-09-09T04:51:01;99458;;;15.82;85.16
57250;BME280;43102;52.014;-0.680;2022-09-09T04:52:00;99458;;;15.82;85.16
57250;BME280;43102;52.014;-0.680;2022-09-09T04:53:00;99458;;;15.82;85.16
57250;BME280;43102;52.014;-0.680;2022-09-09T04:54:00;99458;;;15.82;85.16
57250;BME280;43102;52.014;-0.680;2022-09-09T04:55:00;99458;;;15.82;85.16
57250;BME280;43102;52.014;-0.680;2022-09-09T04:56:02;99456;;;15.83;85.18
57250;BME280;43102;52.014;-0.680;2022-09-09T04:57:00;99456;;;15.83;85.18
57250;BME280;43102;52.014;-0.680;2022-09-09T04:58:04;99456;;;15.83;85.18
57250;BME280;43102;52.014;-0.680;2022-09-09T04:59:00;99456;;;15.83;85.18
57250;BME280;43102;52.014;-0.680;2022-09-09T05:00:00;99456;;;15.83;85.18
57250;BME280;43102;52.014;-0.680;2022-09-09T05:01:08;99462;;;15.82;85.17
57250;BME280;43102;52.014;-0.680;2022-09-09T05:02:00;99462;;;15.82;85.17
57250;BME280;43102;52.014;-0.680;2022-09-09T05:03:02;99462;;;15.82;85.17
57250;BME280;43102;52.014;-0.680;2022-09-09T05:04:00;99462;;;15.82;85.17
57250;BME280;43102;52.014;-0.680;2022-09-09T05:05:00;99462;;;15.82;85.17
57250;BME280;43102;52.014;-0.680;2022-09-09T05:06:04;99460;;;15.80;85.29
57250;BME280;43102;52.014;-0.680;2022-09-09T05:07:00;99460;;;15.80;85.29
57250;BME280;43102;52.014;-0.680;2022-09-09T05:08:00;99460;;;15.80;85.29
57250;BME280;43102;52.014;-0.680;2022-09-09T05:09:00;99460;;;15.80;85.29
57250;BME280;43102;52.014;-0.680;2022-09-09T05:10:00;99460;;;15.80;85.29
57250;BME280;43102;52.014;-0.680;2022-09-09T05:11:00;99468;;;15.78;85.20
57250;BME280;43102;52.014;-0.680;2022-09-09T05:12:00;99468;;;15.78;85.20
57250;BME280;43102;52.014;-0.680;2022-09-09T05:13:00;99468;;;15.78;85.20
57250;BME280;43102;52.014;-0.680;2022-09-09T05:14:00;99468;;;15.78;85.20
57250;BME280;43102;52.014;-0.680;2022-09-09T05:15:00;99468;;;15.78;85.20
57250;BME280;43102;52.014;-0.680;2022-09-09T05:16:00;99469;;;15.76;85.45
57250;BME280;43102;52.014;-0.680;2022-09-09T05:17:00;99469;;;15.76;85.45
57250;BME280;43102;52.014;-0.680;2022-09-09T05:18:00;99469;;;15.76;85.45
57250;BME280;43102;52.014;-0.680;2022-09-09T05:19:00;99469;;;15.76;85.45
57250;BME280;43102;52.014;-0.680;2022-09-09T05:20:00;99469;;;15.76;85.45
57250;BME280;43102;52.014;-0.680;2022-09-09T05:21:00;99475;;;15.79;85.30
57250;BME280;43102;52.014;-0.680;2022-09-09T05:22:00;99475;;;15.79;85.30
57250;BME280;43102;52.014;-0.680;2022-09-09T05:23:00;99475;;;15.79;85.30
57250;BME280;43102;52.014;-0.680;2022-09-09T05:24:00;99475;;;15.79;85.30
57250;BME280;43102;52.014;-0.680;2022-09-09T05:25:00;99475;;;15.79;85.30
57250;BME280;43102;52.014;-0.680;2022-09-09T05:26:00;99483;;;15.77;85.27
57250;BME280;43102;52.014;-0.680;2022-09-09T05:27:00;99483;;;15.77;85.27
57250;BME280;43102;52.014;-0.680;2022-09-09T05:28:00;99483;;;15.77;85.27
57250;BME280;43102;52.014;-0.680;2022-09-09T05:29:00;99483;;;15.77;85.27
57250;BME280;43102;52.014;-0.680;2022-09-09T05:30:00;99483;;;15.77;85.27
57250;BME280;43102;52.014;-0.680;2022-09-09T05:31:01;99483;;;15.76;85.20
57250;BME280;43102;52.014;-0.680;2022-09-09T05:32:00;99483;;;15.76;85.20
57250;BME280;43102;52.014;-0.680;2022-09-09T05:33:00;99483;;;15.76;85.20
57250;BME280;43102;52.014;-0.680;2022-09-09T05:34:00;99483;;;15.76;85.20
57250;BME280;43102;52.014;-0.680;2022-09-09T05:35:00;99483;;;15.76;85.20
57250;BME280;43102;52.014;-0.680;2022-09-09T05:36:01;99489;;;15.78;85.31
57250;BME280;43102;52.014;-0.680;2022-09-09T05:37:00;99489;;;15.78;85.31
57250;BME280;43102;52.014;-0.680;2022-09-09T05:38:00;99489;;;15.78;85.31
57250;BME280;43102;52.014;-0.680;2022-09-09T05:39:00;99489;;;15.78;85.31
57250;BME280;43102;52.014;-0.680;2022-09-09T05:40:00;99489;;;15.78;85.31
57250;BME280;43102;52.014;-0.680;2022-09-09T05:41:00;99491;;;15.79;85.13
57250;BME280;43102;52.014;-0.680;2022-09-09T05:42:00;99491;;;15.79;85.13
57250;BME280;43102;52.014;-0.680;2022-09-09T05:43:00;99491;;;15.79;85.13
57250;BME280;43102;52.014;-0.680;2022-09-09T05:44:00;99491;;;15.79;85.13
57250;BME280;43102;52.014;-0.680;2022-09-09T05:45:00;99491;;;15.79;85.13
57250;BME280;43102;52.014;-0.680;2022-09-09T05:47:00;99489;;;15.76;85.27
57250;BME280;43102;52.014;-0.680;2022-09-09T05:48:00;99489;;;15.76;85.27
57250;BME280;43102;52.014;-0.680;2022-09-09T05:49:00;99489;;;15.76;85.27
57250;BME280;43102;52.014;-0.680;2022-09-09T05:50:00;99489;;;15.76;85.27
57250;BME280;43102;52.014;-0.680;2022-09-09T05:51:00;99498;;;15.73;85.09
57250;BME280;43102;52.014;-0.680;2022-09-09T05:52:00;99498;;;15.73;85.09
57250;BME280;43102;52.014;-0.680;2022-09-09T05:53:00;99498;;;15.73;85.09
57250;BME280;43102;52.014;-0.680;2022-09-09T05:54:00;99498;;;15.73;85.09
57250;BME280;43102;52.014;-0.680;2022-09-09T05:55:00;99498;;;15.73;85.09
57250;BME280;43102;52.014;-0.680;2022-09-09T05:56:00;99500;;;15.72;85.36
57250;BME280;43102;52.014;-0.680;2022-09-09T05:57:00;99500;;;15.72;85.36
57250;BME280;43102;52.014;-0.680;2022-09-09T05:58:00;99500;;;15.72;85.36
57250;BME280;43102;52.014;-0.680;2022-09-09T05:59:00;99500;;;15.72;85.36